createdAt,value
2017-11-29T00:01:40.007Z,5.96
2017-11-29T00:04:07.579Z,6.31
2017-11-29T00:06:35.312Z,6.03
2017-11-29T00:09:02.828Z,6.30
2017-11-29T00:11:30.364Z,6.40
2017-11-29T00:13:58.146Z,6.39
2017-11-29T00:16:25.663Z,6.28
2017-11-29T00:18:53.180Z,6.31
2017-11-29T00:21:20.888Z,6.36
2017-11-29T00:23:48.455Z,6.26
2017-11-29T00:26:16.012Z,6.14
2017-11-29T00:28:43.606Z,6.36
2017-11-29T00:31:11.132Z,6.12
2017-11-29T00:33:38.676Z,6.34
2017-11-29T00:36:06.536Z,6.45
2017-11-29T00:38:34.056Z,6.44
2017-11-29T00:41:01.583Z,6.22
2017-11-29T00:43:29.319Z,6.20
2017-11-29T00:45:56.837Z,6.20
2017-11-29T00:48:24.376Z,6.20
2017-11-29T00:50:52.117Z,5.90
2017-11-29T00:53:19.633Z,5.84
2017-11-29T00:55:47.172Z,5.76
2017-11-29T00:58:15.080Z,6.07
2017-11-29T01:00:42.604Z,5.49
2017-11-29T01:03:10.130Z,5.82
2017-11-29T01:05:37.876Z,5.77
2017-11-29T01:08:05.396Z,5.78
2017-11-29T01:10:32.986Z,5.86
2017-11-29T01:13:00.747Z,5.76
2017-11-29T01:15:28.256Z,5.80
2017-11-29T01:17:55.781Z,5.77
2017-11-29T01:20:23.620Z,5.72
2017-11-29T01:22:51.133Z,5.60
2017-11-29T01:25:18.661Z,5.46
2017-11-29T01:27:46.247Z,5.46
2017-11-29T01:30:13.769Z,5.36
2017-11-29T01:32:41.284Z,5.22
2017-11-29T01:35:09.073Z,5.24
2017-11-29T01:37:36.592Z,5.08
2017-11-29T01:40:04.116Z,5.08
2017-11-29T01:42:31.879Z,4.87
2017-11-29T01:44:59.451Z,4.92
2017-11-29T01:47:26.996Z,4.64
2017-11-29T01:49:54.557Z,4.68
2017-11-29T01:52:22.114Z,4.75
2017-11-29T01:54:50.596Z,4.65
2017-11-29T01:57:18.154Z,4.55
2017-11-29T01:59:45.718Z,4.73
2017-11-29T02:02:13.485Z,4.72
2017-11-29T02:04:41.445Z,4.67
2017-11-29T02:07:08.969Z,4.66
2017-11-29T02:09:36.493Z,4.68
2017-11-29T02:12:04.226Z,4.40
2017-11-29T02:14:31.786Z,4.53
2017-11-29T02:16:59.308Z,4.41
2017-11-29T02:19:27.097Z,4.42
2017-11-29T02:21:54.626Z,4.51
2017-11-29T02:24:22.165Z,4.56
2017-11-29T02:26:49.873Z,4.46
2017-11-29T02:29:17.450Z,4.48
2017-11-29T02:31:45.046Z,4.46
2017-11-29T02:34:12.766Z,4.48
2017-11-29T02:36:40.293Z,4.40
2017-11-29T02:39:07.820Z,4.38
2017-11-29T02:41:47.295Z,4.18
2017-11-29T02:44:14.818Z,4.22
2017-11-29T02:46:42.359Z,4.08
2017-11-29T02:49:10.211Z,4.11
2017-11-29T02:51:37.766Z,3.92
2017-11-29T02:54:05.305Z,3.78
2017-11-29T02:56:33.076Z,3.76
2017-11-29T02:59:00.588Z,3.88
2017-11-29T03:01:28.116Z,3.88
2017-11-29T03:03:55.849Z,3.94
2017-11-29T03:06:23.370Z,3.94
2017-11-29T03:08:50.884Z,3.84
2017-11-29T03:11:18.854Z,3.75
2017-11-29T03:13:46.431Z,3.65
2017-11-29T03:16:13.972Z,3.62
2017-11-29T03:18:41.545Z,3.62
2017-11-29T03:21:09.092Z,3.87
2017-11-29T03:23:36.656Z,3.86
2017-11-29T03:26:04.353Z,3.98
2017-11-29T03:28:31.872Z,4.02
2017-11-29T03:30:59.432Z,4.04
2017-11-29T03:33:26.981Z,4.16
2017-11-29T03:35:54.592Z,4.07
2017-11-29T03:38:22.117Z,4.06
2017-11-29T03:40:49.901Z,4.06
2017-11-29T03:43:17.416Z,3.93
2017-11-29T03:45:44.938Z,3.96
2017-11-29T03:48:12.632Z,3.94
2017-11-29T03:50:40.147Z,3.86
2017-11-29T03:53:07.673Z,3.85
2017-11-29T03:55:35.438Z,4.03
2017-11-29T03:58:02.972Z,3.92
2017-11-29T04:00:30.480Z,3.94
2017-11-29T04:02:58.187Z,3.74
2017-11-29T04:05:25.701Z,3.94
2017-11-29T04:07:53.216Z,3.75
2017-11-29T04:10:20.923Z,4.01
2017-11-29T04:12:48.440Z,4.05
2017-11-29T04:15:15.954Z,3.99
2017-11-29T04:17:43.648Z,4.06
2017-11-29T04:20:11.177Z,4.11
2017-11-29T04:22:38.704Z,4.17
2017-11-29T04:25:06.448Z,4.18
2017-11-29T04:27:34.056Z,4.31
2017-11-29T04:30:01.578Z,4.47
2017-11-29T04:32:29.280Z,4.32
2017-11-29T04:34:56.800Z,4.30
2017-11-29T04:37:24.345Z,4.33
2017-11-29T04:39:51.910Z,4.44
2017-11-29T04:42:19.462Z,4.53
2017-11-29T04:44:46.981Z,4.55
2017-11-29T04:47:14.539Z,4.77
2017-11-29T04:49:42.056Z,4.89
2017-11-29T04:52:09.596Z,4.95
2017-11-29T04:54:37.361Z,5.12
2017-11-29T04:57:04.919Z,4.90
2017-11-29T04:59:32.484Z,5.10
2017-11-29T05:02:00.037Z,4.81
2017-11-29T05:04:27.584Z,4.78
2017-11-29T05:06:55.093Z,5.00
2017-11-29T05:09:22.820Z,4.87
2017-11-29T05:11:50.393Z,4.73
2017-11-29T05:14:17.941Z,4.60
2017-11-29T05:16:45.504Z,4.42
2017-11-29T05:19:13.076Z,4.40
2017-11-29T05:21:40.613Z,4.32
2017-11-29T05:24:08.173Z,4.45
2017-11-29T05:26:35.732Z,4.34
2017-11-29T05:29:03.260Z,4.45
2017-11-29T05:31:31.135Z,4.40
2017-11-29T05:33:58.671Z,4.42
2017-11-29T05:36:27.210Z,4.47
2017-11-29T05:38:54.876Z,4.47
2017-11-29T05:41:22.397Z,4.46
2017-11-29T05:43:49.913Z,4.68
2017-11-29T05:46:17.730Z,4.75
2017-11-29T05:48:45.249Z,4.46
2017-11-29T05:51:12.765Z,4.58
2017-11-29T05:53:40.620Z,4.85
2017-11-29T05:56:08.182Z,4.80
2017-11-29T05:58:35.698Z,4.95
2017-11-29T06:01:03.253Z,4.88
2017-11-29T06:03:30.771Z,4.75
2017-11-29T06:05:58.292Z,5.01
2017-11-29T06:08:26.079Z,5.04
2017-11-29T06:10:53.638Z,5.00
2017-11-29T06:13:21.300Z,5.19
2017-11-29T06:15:49.081Z,5.12
2017-11-29T06:18:16.620Z,5.02
2017-11-29T06:20:44.283Z,5.32
2017-11-29T06:23:12.957Z,5.17
2017-11-29T06:25:40.475Z,5.32
2017-11-29T06:28:08.906Z,5.23
2017-11-29T06:30:36.499Z,5.12
2017-11-29T06:33:04.024Z,5.06
2017-11-29T06:35:31.584Z,5.30
2017-11-29T06:37:59.428Z,5.31
2017-11-29T06:40:26.935Z,5.11
2017-11-29T06:42:54.452Z,5.08
2017-11-29T06:45:22.163Z,5.34
2017-11-29T06:47:49.680Z,5.12
2017-11-29T06:50:17.199Z,5.30
2017-11-29T06:52:45.113Z,5.32
2017-11-29T06:55:12.650Z,5.41
2017-11-29T06:57:40.168Z,5.31
2017-11-29T07:00:08.019Z,5.45
2017-11-29T07:02:35.552Z,5.50
2017-11-29T07:05:03.116Z,5.31
2017-11-29T07:07:30.857Z,5.35
2017-11-29T07:09:58.381Z,5.26
2017-11-29T07:12:25.935Z,5.54
2017-11-29T07:14:53.509Z,5.33
2017-11-29T07:17:21.934Z,5.42
2017-11-29T07:19:50.419Z,5.24
2017-11-29T07:22:18.176Z,5.36
2017-11-29T07:24:46.019Z,5.20
2017-11-29T07:27:14.319Z,5.24
2017-11-29T07:29:43.214Z,5.36
2017-11-29T07:32:11.515Z,5.43
2017-11-29T07:34:39.291Z,5.35
2017-11-29T07:37:07.124Z,5.46
2017-11-29T07:39:34.873Z,5.39
2017-11-29T07:42:04.424Z,5.41
2017-11-29T07:44:32.432Z,5.49
2017-11-29T07:46:59.996Z,5.28
2017-11-29T07:49:27.685Z,5.37
2017-11-29T07:51:55.748Z,5.65
2017-11-29T07:54:23.307Z,5.31
2017-11-29T07:56:50.852Z,5.49
2017-11-29T07:59:18.551Z,5.22
2017-11-29T08:01:46.237Z,5.53
2017-11-29T08:04:16.486Z,5.55
2017-11-29T08:06:44.684Z,5.41
2017-11-29T08:09:12.844Z,5.57
2017-11-29T08:11:40.484Z,5.78
2017-11-29T08:14:08.492Z,5.70
2017-11-29T08:16:36.150Z,5.98
2017-11-29T08:19:03.711Z,5.83
2017-11-29T08:21:32.191Z,6.51
2017-11-29T08:23:59.860Z,6.55
2017-11-29T08:26:27.615Z,6.42
2017-11-29T08:28:56.159Z,6.46
2017-11-29T08:31:25.499Z,6.80
2017-11-29T08:33:53.169Z,6.86
2017-11-29T08:36:20.870Z,6.66
2017-11-29T08:38:48.385Z,6.43
2017-11-29T08:41:15.908Z,6.29
2017-11-29T08:43:43.584Z,6.32
2017-11-29T08:46:11.098Z,6.33
2017-11-29T08:48:38.724Z,6.67
2017-11-29T08:51:06.441Z,6.82
2017-11-29T08:53:33.956Z,7.36
2017-11-29T08:56:01.477Z,7.07
2017-11-29T08:58:29.264Z,6.80
2017-11-29T09:00:56.784Z,6.56
2017-11-29T09:03:24.382Z,6.70
2017-11-29T09:05:52.158Z,6.85
2017-11-29T09:08:19.706Z,6.46
2017-11-29T09:10:47.265Z,6.96
2017-11-29T09:13:15.008Z,6.84
2017-11-29T09:15:42.523Z,7.32
2017-11-29T09:18:10.039Z,7.32
2017-11-29T09:20:37.830Z,7.37
2017-11-29T09:23:05.399Z,7.46
2017-11-29T09:25:33.111Z,7.50
2017-11-29T09:28:00.982Z,7.38
2017-11-29T09:30:28.509Z,7.05
2017-11-29T09:32:56.062Z,7.17
2017-11-29T09:35:23.883Z,7.26
2017-11-29T09:37:51.420Z,7.68
2017-11-29T09:40:18.929Z,7.50
2017-11-29T09:42:46.660Z,7.44
2017-11-29T09:45:14.196Z,7.12
2017-11-29T09:47:41.712Z,7.32
2017-11-29T09:50:09.420Z,7.68
2017-11-29T09:52:36.998Z,7.81
2017-11-29T09:55:04.521Z,7.73
2017-11-29T09:57:32.100Z,7.75
2017-11-29T09:59:59.632Z,7.98
2017-11-29T10:02:27.319Z,8.26
2017-11-29T10:04:55.188Z,7.98
2017-11-29T10:07:22.845Z,7.98
2017-11-29T10:09:50.376Z,8.14
2017-11-29T10:12:18.060Z,7.97
2017-11-29T10:14:45.601Z,8.26
2017-11-29T10:17:13.129Z,7.92
2017-11-29T10:19:41.052Z,8.09
2017-11-29T10:22:08.628Z,7.89
2017-11-29T10:24:36.145Z,8.12
2017-11-29T10:27:03.928Z,8.19
2017-11-29T10:29:31.444Z,7.72
2017-11-29T10:31:58.970Z,7.88
2017-11-29T10:34:26.712Z,8.11
2017-11-29T10:36:54.241Z,8.10
2017-11-29T10:39:21.851Z,8.17
2017-11-29T10:41:49.429Z,8.17
2017-11-29T10:44:17.172Z,8.18
2017-11-29T10:46:44.680Z,8.07
2017-11-29T10:49:12.576Z,7.99
2017-11-29T10:51:40.088Z,8.11
2017-11-29T10:54:07.632Z,8.41
2017-11-29T10:56:35.278Z,8.35
2017-11-29T10:59:02.937Z,8.56
2017-11-29T11:01:30.494Z,8.83
2017-11-29T11:03:58.260Z,8.82
2017-11-29T11:06:25.817Z,8.89
2017-11-29T11:08:53.380Z,9.00
2017-11-29T11:11:21.119Z,9.23
2017-11-29T11:13:48.781Z,9.25
2017-11-29T11:16:16.296Z,9.13
2017-11-29T11:18:43.999Z,9.20
2017-11-29T11:21:11.517Z,9.18
2017-11-29T11:23:39.040Z,9.19
2017-11-29T11:26:06.832Z,8.97
2017-11-29T11:28:34.369Z,9.14
2017-11-29T11:31:01.921Z,9.26
2017-11-29T11:33:29.491Z,9.35
2017-11-29T11:35:57.008Z,9.48
2017-11-29T11:38:24.582Z,9.62
2017-11-29T11:40:52.291Z,9.77
2017-11-29T11:43:19.842Z,9.79
2017-11-29T11:45:47.488Z,9.73
2017-11-29T11:48:15.348Z,9.59
2017-11-29T11:50:42.867Z,9.51
2017-11-29T11:53:10.381Z,9.47
2017-11-29T11:55:38.112Z,9.21
2017-11-29T11:58:05.675Z,9.19
2017-11-29T12:00:33.194Z,9.11
2017-11-29T12:03:00.892Z,8.98
2017-11-29T12:05:28.481Z,8.67
2017-11-29T12:07:55.988Z,8.55
2017-11-29T12:10:23.772Z,8.59
2017-11-29T12:12:51.297Z,8.58
2017-11-29T12:15:18.832Z,8.74
2017-11-29T12:17:46.548Z,8.76
2017-11-29T12:20:14.081Z,8.71
2017-11-29T12:22:41.649Z,8.78
2017-11-29T12:25:09.432Z,8.89
2017-11-29T12:27:36.968Z,8.99
2017-11-29T12:30:04.655Z,8.75
2017-11-29T12:32:32.516Z,8.57
2017-11-29T12:35:00.041Z,8.56
2017-11-29T12:37:27.557Z,8.64
2017-11-29T12:39:55.300Z,8.66
2017-11-29T12:42:22.878Z,8.58
2017-11-29T12:44:50.552Z,8.57
2017-11-29T12:47:18.505Z,8.58
2017-11-29T12:49:58.049Z,8.59
2017-11-29T12:52:26.014Z,8.48
2017-11-29T12:54:53.574Z,8.24
2017-11-29T12:57:21.081Z,8.37
2017-11-29T12:59:48.971Z,8.38
2017-11-29T13:02:16.484Z,8.26
2017-11-29T13:04:43.999Z,8.26
2017-11-29T13:07:11.755Z,8.21
2017-11-29T13:09:39.457Z,8.16
2017-11-29T13:12:07.000Z,8.13
2017-11-29T13:14:34.694Z,8.06
2017-11-29T13:17:02.213Z,8.05
2017-11-29T13:19:29.781Z,7.98
2017-11-29T13:21:57.551Z,8.19
2017-11-29T13:24:25.184Z,8.04
2017-11-29T13:26:52.748Z,8.28
2017-11-29T13:29:20.358Z,8.31
2017-11-29T13:31:47.884Z,8.53
2017-11-29T13:34:16.181Z,8.58
2017-11-29T13:36:43.920Z,8.47
2017-11-29T13:39:11.431Z,8.50
2017-11-29T13:41:38.956Z,8.54
2017-11-29T13:44:06.915Z,8.36
2017-11-29T13:46:34.465Z,8.49
2017-11-29T13:49:02.025Z,8.50
2017-11-29T13:51:29.778Z,8.48
2017-11-29T13:53:57.348Z,8.25
2017-11-29T13:56:25.044Z,8.35
2017-11-29T13:58:52.854Z,8.46
2017-11-29T14:01:20.386Z,8.09
2017-11-29T14:03:47.917Z,8.31
2017-11-29T14:06:15.736Z,8.36
2017-11-29T14:08:43.272Z,8.44
2017-11-29T14:11:10.793Z,8.53
2017-11-29T14:13:38.375Z,8.37
2017-11-29T14:16:05.918Z,8.27
2017-11-29T14:18:33.451Z,8.10
2017-11-29T14:21:01.310Z,8.35
2017-11-29T14:23:28.829Z,8.52
2017-11-29T14:25:56.435Z,8.63
2017-11-29T14:28:24.179Z,8.71
2017-11-29T14:30:51.875Z,8.72
2017-11-29T14:33:19.454Z,8.44
2017-11-29T14:35:47.286Z,8.29
2017-11-29T14:38:14.826Z,8.11
2017-11-29T14:40:42.404Z,7.78
2017-11-29T14:43:09.993Z,7.58
2017-11-29T14:45:37.522Z,7.58
2017-11-29T14:48:05.202Z,7.11
2017-11-29T14:50:33.254Z,7.16
2017-11-29T14:53:00.947Z,6.86
2017-11-29T14:55:29.705Z,6.93
2017-11-29T14:57:57.503Z,6.89
2017-11-29T15:00:25.240Z,6.96
2017-11-29T15:02:52.802Z,6.84
2017-11-29T15:05:20.665Z,6.98
2017-11-29T15:07:48.318Z,6.95
2017-11-29T15:10:15.936Z,6.81
2017-11-29T15:12:43.641Z,6.86
2017-11-29T15:15:11.154Z,6.69
2017-11-29T15:17:38.681Z,6.59
2017-11-29T15:20:06.320Z,6.58
2017-11-29T15:22:33.986Z,6.58
2017-11-29T15:25:03.818Z,6.46
2017-11-29T15:27:31.981Z,6.35
2017-11-29T15:30:00.244Z,6.33
2017-11-29T15:32:28.106Z,6.37
2017-11-29T15:34:56.109Z,6.35
2017-11-29T15:37:23.651Z,6.38
2017-11-29T15:39:51.182Z,6.33
2017-11-29T15:42:18.884Z,6.21
2017-11-29T15:44:46.556Z,6.23
2017-11-29T15:47:14.180Z,6.12
2017-11-29T15:49:41.841Z,6.03
2017-11-29T15:52:09.440Z,6.02
2017-11-29T15:54:36.992Z,6.09
2017-11-29T15:57:04.703Z,6.06
2017-11-29T15:59:32.235Z,5.88
2017-11-29T16:01:59.758Z,5.94
2017-11-29T16:04:27.341Z,5.81
2017-11-29T16:06:54.929Z,5.64
2017-11-29T16:09:22.453Z,5.67
2017-11-29T16:11:50.177Z,5.61
2017-11-29T16:14:17.795Z,5.53
2017-11-29T16:16:45.372Z,5.46
2017-11-29T16:19:13.167Z,5.37
2017-11-29T16:21:40.721Z,5.43
2017-11-29T16:24:08.269Z,5.45
2017-11-29T16:26:35.903Z,5.15
2017-11-29T16:29:03.457Z,5.33
2017-11-29T16:31:30.997Z,5.39
2017-11-29T16:33:58.904Z,5.36
2017-11-29T16:36:26.432Z,5.36
2017-11-29T16:38:53.975Z,5.29
2017-11-29T16:41:21.706Z,5.23
2017-11-29T16:43:49.373Z,5.31
2017-11-29T16:46:16.934Z,5.35
2017-11-29T16:48:44.746Z,5.39
2017-11-29T16:51:12.454Z,5.48
2017-11-29T16:53:40.730Z,5.51
2017-11-29T16:56:08.796Z,5.56
2017-11-29T16:58:36.670Z,5.53
2017-11-29T17:01:04.424Z,5.46
2017-11-29T17:03:32.299Z,5.36
2017-11-29T17:05:59.878Z,5.25
2017-11-29T17:08:27.739Z,5.21
2017-11-29T17:10:56.006Z,5.12
2017-11-29T17:13:23.865Z,5.04
2017-11-29T17:15:51.639Z,5.04
2017-11-29T17:18:19.719Z,5.02
2017-11-29T17:20:48.144Z,5.02
2017-11-29T17:23:15.974Z,5.06
2017-11-29T17:25:43.812Z,5.05
2017-11-29T17:28:11.575Z,5.09
2017-11-29T17:30:39.544Z,5.14
2017-11-29T17:33:07.438Z,5.13
2017-11-29T17:35:35.379Z,5.20
2017-11-29T17:38:03.142Z,5.26
2017-11-29T17:40:31.128Z,5.30
2017-11-29T17:42:59.184Z,5.21
2017-11-29T17:45:26.980Z,5.27
2017-11-29T17:47:54.852Z,5.16
2017-11-29T17:50:23.090Z,4.98
2017-11-29T17:52:51.058Z,5.02
2017-11-29T17:55:19.436Z,4.53
2017-11-29T17:57:48.020Z,4.67
2017-11-29T18:00:15.721Z,4.84
2017-11-29T18:02:43.962Z,5.07
2017-11-29T18:05:11.724Z,5.05
2017-11-29T18:07:39.908Z,4.93
2017-11-29T18:10:08.177Z,4.87
2017-11-29T18:12:36.037Z,4.63
2017-11-29T18:15:04.518Z,4.83
2017-11-29T18:17:32.386Z,4.82
2017-11-29T18:20:00.681Z,4.99
2017-11-29T18:22:28.422Z,4.94
2017-11-29T18:24:56.564Z,5.03
2017-11-29T18:27:24.383Z,4.83
2017-11-29T18:29:52.239Z,4.53
2017-11-29T18:32:20.399Z,4.58
2017-11-29T18:34:48.019Z,4.53
2017-11-29T18:37:15.826Z,4.30
2017-11-29T18:39:43.841Z,4.44
2017-11-29T18:42:11.758Z,4.38
2017-11-29T18:44:39.644Z,4.29
2017-11-29T18:47:07.803Z,4.07
2017-11-29T18:49:35.556Z,3.97
2017-11-29T18:52:03.273Z,4.07
2017-11-29T18:54:31.371Z,4.19
2017-11-29T18:56:59.068Z,4.15
2017-11-29T18:59:26.723Z,4.05
2017-11-29T19:01:55.111Z,3.99
2017-11-29T19:04:22.867Z,4.05
2017-11-29T19:06:50.632Z,4.09
2017-11-29T19:09:18.466Z,4.05
2017-11-29T19:11:46.076Z,4.07
2017-11-29T19:14:13.818Z,4.08
2017-11-29T19:16:41.487Z,4.12
2017-11-29T19:19:09.143Z,4.12
2017-11-29T19:21:36.920Z,4.03
2017-11-29T19:24:04.857Z,4.08
2017-11-29T19:26:32.442Z,3.99
2017-11-29T19:29:00.301Z,3.75
2017-11-29T19:31:28.063Z,3.76
2017-11-29T19:33:55.687Z,3.79
2017-11-29T19:36:23.321Z,3.67
2017-11-29T19:38:51.039Z,3.63
2017-11-29T19:41:18.817Z,3.79
2017-11-29T19:43:46.680Z,3.88
2017-11-29T19:46:14.656Z,3.93
2017-11-29T19:48:42.620Z,3.90
2017-11-29T19:51:10.484Z,3.90
2017-11-29T19:53:38.544Z,4.10
2017-11-29T19:56:06.539Z,4.19
2017-11-29T19:58:34.445Z,4.15
2017-11-29T20:01:02.611Z,4.27
2017-11-29T20:03:30.502Z,4.35
2017-11-29T20:05:58.910Z,4.40
2017-11-29T20:08:26.984Z,4.36
2017-11-29T20:10:54.859Z,4.39
2017-11-29T20:13:22.714Z,4.43
2017-11-29T20:15:50.787Z,4.28
2017-11-29T20:18:18.651Z,4.25
2017-11-29T20:20:46.428Z,4.19
2017-11-29T20:23:14.390Z,4.15
2017-11-29T20:25:42.202Z,4.07
2017-11-29T20:28:10.141Z,4.03
2017-11-29T20:30:38.195Z,3.95
2017-11-29T20:33:05.964Z,3.94
2017-11-29T20:35:33.943Z,3.92
2017-11-29T20:38:01.792Z,3.90
2017-11-29T20:40:29.572Z,3.81
2017-11-29T20:42:57.436Z,3.82
2017-11-29T20:45:25.796Z,3.72
2017-11-29T20:47:53.564Z,3.69
2017-11-29T20:50:21.426Z,3.61
2017-11-29T20:52:56.268Z,3.51
2017-11-29T20:55:24.007Z,3.43
2017-11-29T20:57:51.733Z,3.47
2017-11-29T21:00:19.872Z,3.22
2017-11-29T21:02:47.823Z,3.23
2017-11-29T21:05:15.656Z,3.21
2017-11-29T21:07:43.777Z,3.15
2017-11-29T21:10:12.452Z,3.23
2017-11-29T21:12:40.415Z,3.15
2017-11-29T21:15:08.813Z,3.09
2017-11-29T21:17:37.276Z,2.97
2017-11-29T21:20:05.141Z,2.94
2017-11-29T21:22:33.851Z,3.00
2017-11-29T21:25:01.648Z,3.09
2017-11-29T21:27:29.566Z,3.17
2017-11-29T21:29:57.830Z,3.08
2017-11-29T21:32:26.112Z,3.03
2017-11-29T21:34:53.785Z,3.01
2017-11-29T21:37:21.988Z,2.98
2017-11-29T21:39:49.704Z,2.85
2017-11-29T21:42:17.494Z,2.91
2017-11-29T21:44:45.338Z,2.86
2017-11-29T21:47:13.206Z,2.84
2017-11-29T21:49:41.077Z,2.75
2017-11-29T21:52:08.948Z,2.63
2017-11-29T21:54:36.585Z,2.58
2017-11-29T21:57:04.217Z,2.42
2017-11-29T21:59:32.130Z,2.38
2017-11-29T22:01:59.791Z,2.48
2017-11-29T22:04:27.370Z,2.57
2017-11-29T22:06:55.421Z,2.50
2017-11-29T22:09:22.979Z,2.38
2017-11-29T22:11:50.962Z,2.58
2017-11-29T22:14:18.692Z,2.50
2017-11-29T22:16:46.208Z,2.45
2017-11-29T22:19:13.733Z,2.44
2017-11-29T22:21:41.576Z,2.47
2017-11-29T22:24:09.099Z,2.49
2017-11-29T22:26:36.710Z,2.48
2017-11-29T22:29:04.476Z,2.50
2017-11-29T22:31:32.035Z,2.54
2017-11-29T22:33:59.612Z,2.54
2017-11-29T22:36:27.408Z,2.54
2017-11-29T22:38:55.841Z,2.61
2017-11-29T22:41:23.418Z,2.57
2017-11-29T22:43:51.470Z,2.51
2017-11-29T22:46:19.335Z,2.57
2017-11-29T22:48:46.952Z,2.51
2017-11-29T22:51:14.965Z,2.52
2017-11-29T22:53:42.530Z,2.60
2017-11-29T22:56:10.041Z,2.52
2017-11-29T22:58:37.758Z,2.45
2017-11-29T23:01:05.287Z,2.45
2017-11-29T23:03:32.813Z,2.50
2017-11-29T23:06:00.611Z,2.47
2017-11-29T23:10:54.956Z,2.65
2017-11-29T23:13:22.609Z,2.61
2017-11-29T23:15:50.170Z,2.70
2017-11-29T23:18:17.697Z,2.62
2017-11-29T23:20:45.279Z,2.70
2017-11-29T23:23:12.825Z,2.46
2017-11-29T23:25:40.349Z,2.61
2017-11-29T23:28:07.947Z,2.63
2017-11-29T23:30:35.502Z,2.66
2017-11-29T23:33:03.045Z,2.35
2017-11-29T23:35:30.706Z,2.53
2017-11-29T23:37:58.236Z,2.57
2017-11-29T23:40:25.760Z,2.90
2017-11-29T23:42:53.503Z,3.07
2017-11-29T23:45:21.061Z,3.07
2017-11-29T23:47:48.622Z,3.18
2017-11-29T23:50:16.507Z,2.95
2017-11-29T23:52:44.024Z,3.20
2017-11-29T23:55:11.543Z,3.36
2017-11-29T23:57:39.425Z,3.48
